Other Surface Observations
Issued by NWS Missoula, MT

Home | Current Version | Previous Version | Text Only | Print | Product List | Glossary On
Versions: 1 2 3 4 5 6 7 8 9 10 11 12 13 14 15 16 17 18 19 20 21 22 23 24 25 26 27 28 29 30 31 32 33 34 35 36 37 38 39 40 41 42 43 44 45 46 47 48 49 50
000
SXUS55 KMSO 311804
OSOMSO
MONTANA AWOS SUMMARY
NATIONAL WEATHER SERVICE MISSOULA MT
1203 PM MDT TUE MAY 31 2016

Montana AWOS Reports

LAUREL      |K6S8 311755Z AUTO 30008KT 40SM 14/02 A3015 RMK AO1 T01440017
ROUNDUP     |KRPX 311755Z AUTO 29015G19KT 40SM 12/04 A3006 RMK AO1 T01170039
EKALAKA     |K97M 311755Z AUTO 28022G26KT 4SM BR 09/08 A2991 RMK AO1 T00940078
SCOBEY      |K9S2 311755Z AUTO 34022G28KT 40SM 13/06 A2991 RMK AO1 T01280056
PLAINS      |KS34 311755Z AUTO 00000KT 40SM 19/03 A3016 RMK AO1 T01940033




USA.gov is the U.S. government's official web portal to all federal, state and local government web resources and services.